createdAt,value
2023-04-26T00:00:02.167Z,2.77
2023-04-26T00:02:30.446Z,3.00
2023-04-26T00:05:02.377Z,4.23
2023-04-26T00:07:30.783Z,5.30
2023-04-26T00:09:59.007Z,3.87
2023-04-26T00:12:27.126Z,3.90
2023-04-26T00:14:55.252Z,3.83
2023-04-26T00:17:25.009Z,4.90
2023-04-26T00:19:53.186Z,3.73
2023-04-26T00:22:22.784Z,5.37
2023-04-26T00:24:50.945Z,6.07
2023-04-26T00:27:19.175Z,4.03
2023-04-26T00:29:47.314Z,5.90
2023-04-26T00:32:15.481Z,6.80
2023-04-26T00:34:43.685Z,4.47
2023-04-26T00:37:11.854Z,8.50
2023-04-26T00:39:41.425Z,5.37
2023-04-26T00:42:09.632Z,4.63
2023-04-26T00:44:40.132Z,5.37
2023-04-26T00:47:08.330Z,3.87
2023-04-26T00:49:36.505Z,3.37
2023-04-26T00:52:04.724Z,5.53
2023-04-26T00:54:33.142Z,4.13
2023-04-26T00:57:03.620Z,4.77
2023-04-26T00:59:31.792Z,4.73
2023-04-26T01:02:00.279Z,5.13
2023-04-26T01:04:30.378Z,5.10
2023-04-26T01:06:59.404Z,6.97
2023-04-26T01:09:27.602Z,4.50
2023-04-26T01:11:58.613Z,6.83
2023-04-26T01:14:28.789Z,6.37
2023-04-26T01:16:58.666Z,5.13
2023-04-26T01:19:26.880Z,4.30
2023-04-26T01:21:55.067Z,3.63
2023-04-26T01:24:24.740Z,8.77
2023-04-26T01:26:52.970Z,5.03
2023-04-26T01:29:22.224Z,7.30
2023-04-26T01:31:51.023Z,9.90
2023-04-26T01:34:19.209Z,15.03
2023-04-26T01:36:47.371Z,17.97
2023-04-26T01:39:15.856Z,15.67
2023-04-26T01:41:45.446Z,21.73
2023-04-26T01:44:13.619Z,19.67
2023-04-26T01:46:41.932Z,17.30
2023-04-26T01:49:10.170Z,17.53
2023-04-26T01:51:38.384Z,20.63
2023-04-26T01:54:07.339Z,17.63
2023-04-26T01:56:35.514Z,17.00
2023-04-26T01:59:05.097Z,22.60
2023-04-26T02:01:33.392Z,17.27
2023-04-26T02:04:01.588Z,15.87
2023-04-26T02:06:29.752Z,22.40
2023-04-26T02:08:58.101Z,18.23
2023-04-26T02:11:27.029Z,11.87
2023-04-26T02:13:55.326Z,10.87
2023-04-26T02:16:25.228Z,17.17
2023-04-26T02:18:54.064Z,16.67
2023-04-26T02:21:22.977Z,13.13
2023-04-26T02:23:51.144Z,15.23
2023-04-26T02:26:19.422Z,14.73
2023-04-26T02:28:47.594Z,12.43
2023-04-26T02:31:15.798Z,11.27
2023-04-26T02:33:45.543Z,14.80
2023-04-26T02:36:13.774Z,14.90
2023-04-26T02:38:41.948Z,13.77
2023-04-26T02:41:10.120Z,21.03
2023-04-26T02:43:38.365Z,17.63
2023-04-26T02:46:08.923Z,24.53
2023-04-26T02:48:37.144Z,13.33
2023-04-26T02:51:07.441Z,12.73
2023-04-26T02:53:36.041Z,15.57
2023-04-26T02:56:04.186Z,17.23
2023-04-26T02:58:32.403Z,17.17
2023-04-26T03:01:01.793Z,19.63
2023-04-26T03:03:31.111Z,16.03
2023-04-26T03:05:59.685Z,19.63
2023-04-26T03:08:29.206Z,17.13
2023-04-26T03:10:57.372Z,13.73
2023-04-26T03:13:25.543Z,21.13
2023-04-26T03:15:53.756Z,16.17
2023-04-26T03:18:21.931Z,19.60
2023-04-26T03:20:50.234Z,14.80
2023-04-26T03:23:18.379Z,21.70
2023-04-26T03:25:47.927Z,27.20
2023-04-26T03:28:16.059Z,17.73
2023-04-26T03:30:44.247Z,15.67
2023-04-26T03:33:13.510Z,15.53
2023-04-26T03:35:41.741Z,13.37
2023-04-26T03:38:09.876Z,17.67
2023-04-26T03:40:38.120Z,15.63
2023-04-26T03:43:07.734Z,15.63
2023-04-26T03:45:36.726Z,18.10
2023-04-26T03:48:05.204Z,19.73
2023-04-26T03:50:33.467Z,14.60
2023-04-26T03:53:01.644Z,16.77
2023-04-26T03:55:29.804Z,14.47
2023-04-26T03:57:57.978Z,16.00
2023-04-26T04:00:27.897Z,12.10
2023-04-26T04:02:56.248Z,13.50
2023-04-26T04:05:24.603Z,16.10
2023-04-26T04:07:53.262Z,14.00
2023-04-26T04:10:22.974Z,14.20
2023-04-26T04:12:53.537Z,19.57
2023-04-26T04:15:22.214Z,17.87
2023-04-26T04:17:51.981Z,15.37
2023-04-26T04:20:21.184Z,21.73
2023-04-26T04:22:49.424Z,20.23
2023-04-26T04:25:17.595Z,11.47
2023-04-26T04:27:45.762Z,16.80
2023-04-26T04:30:14.576Z,14.13
2023-04-26T04:32:45.171Z,11.70
2023-04-26T04:35:14.990Z,17.80
2023-04-26T04:37:44.021Z,23.90
2023-04-26T04:40:13.446Z,15.97
2023-04-26T04:42:41.733Z,24.70
2023-04-26T04:45:10.996Z,13.03
2023-04-26T04:47:39.768Z,15.40
2023-04-26T04:50:09.214Z,16.30
2023-04-26T04:52:38.737Z,19.13
2023-04-26T04:55:07.649Z,19.40
2023-04-26T04:57:35.960Z,14.43
2023-04-26T05:00:10.053Z,12.03
2023-04-26T05:02:38.479Z,15.47
2023-04-26T05:05:07.622Z,21.23
2023-04-26T05:07:36.234Z,15.43
2023-04-26T05:10:07.064Z,16.47
2023-04-26T05:12:35.452Z,15.87
2023-04-26T05:15:04.377Z,13.70
2023-04-26T05:17:32.795Z,17.63
2023-04-26T05:20:04.206Z,13.33
2023-04-26T05:22:32.375Z,13.87
2023-04-26T05:25:00.742Z,14.37
2023-04-26T05:27:31.642Z,15.17
2023-04-26T05:30:01.431Z,12.87
2023-04-26T05:32:29.648Z,16.10
2023-04-26T05:34:58.001Z,11.23
2023-04-26T05:37:26.239Z,13.47
2023-04-26T05:39:54.397Z,16.47
2023-04-26T05:42:22.546Z,10.97
2023-04-26T05:44:52.072Z,11.57
2023-04-26T05:47:20.193Z,11.03
2023-04-26T05:49:48.356Z,13.27
2023-04-26T05:52:16.530Z,17.07
2023-04-26T05:54:44.747Z,12.73
2023-04-26T05:57:12.950Z,10.73
2023-04-26T05:59:41.502Z,11.47
2023-04-26T06:02:11.657Z,10.40
2023-04-26T06:04:40.026Z,11.87
2023-04-26T06:07:08.386Z,10.53
2023-04-26T06:09:36.623Z,13.30
2023-04-26T06:12:05.371Z,14.80
2023-04-26T06:14:33.531Z,10.50
2023-04-26T06:17:01.780Z,11.77
2023-04-26T06:19:31.367Z,11.57
2023-04-26T06:21:59.552Z,10.00
2023-04-26T06:24:27.899Z,11.10
2023-04-26T06:26:56.145Z,12.07
2023-04-26T06:29:24.479Z,18.00
2023-04-26T06:31:52.616Z,12.97
2023-04-26T06:34:20.794Z,11.53
2023-04-26T06:36:50.664Z,10.13
2023-04-26T06:39:18.832Z,7.37
2023-04-26T06:41:47.004Z,7.70
2023-04-26T06:44:15.148Z,13.90
2023-04-26T06:46:43.554Z,12.93
2023-04-26T06:49:11.903Z,9.10
2023-04-26T06:51:40.086Z,7.57
2023-04-26T06:54:09.654Z,10.50
2023-04-26T06:56:37.783Z,11.73
2023-04-26T06:59:07.303Z,7.80
2023-04-26T07:01:36.584Z,9.77
2023-04-26T07:04:07.928Z,9.43
2023-04-26T07:06:36.967Z,10.70
2023-04-26T07:09:05.338Z,11.80
2023-04-26T07:11:35.039Z,6.90
2023-04-26T07:14:03.317Z,9.30
2023-04-26T07:16:31.552Z,10.97
2023-04-26T07:18:59.747Z,12.73
2023-04-26T07:21:28.241Z,10.73
2023-04-26T07:23:56.930Z,10.73
2023-04-26T07:26:26.654Z,11.97
2023-04-26T07:28:56.672Z,7.60
2023-04-26T07:31:25.381Z,12.23
2023-04-26T07:33:53.846Z,9.97
2023-04-26T07:36:23.864Z,8.67
2023-04-26T07:38:53.243Z,15.63
2023-04-26T07:41:21.468Z,8.10
2023-04-26T07:43:49.629Z,7.17
2023-04-26T07:46:19.234Z,11.23
2023-04-26T07:48:47.396Z,12.53
2023-04-26T07:51:15.623Z,6.00
2023-04-26T07:53:43.792Z,10.77
2023-04-26T07:56:12.106Z,10.13
2023-04-26T07:58:40.320Z,8.17
2023-04-26T08:01:08.803Z,7.33
2023-04-26T08:03:38.598Z,12.70
2023-04-26T08:06:08.881Z,15.77
2023-04-26T08:08:42.836Z,9.30
2023-04-26T08:11:11.117Z,15.23
2023-04-26T08:13:39.300Z,16.70
2023-04-26T08:16:08.056Z,7.07
2023-04-26T08:18:37.625Z,7.97
2023-04-26T08:21:06.498Z,12.00
2023-04-26T08:23:36.867Z,6.63
2023-04-26T08:26:05.100Z,10.57
2023-04-26T08:28:33.326Z,12.60
2023-04-26T08:31:01.522Z,10.93
2023-04-26T08:33:29.784Z,6.30
2023-04-26T08:36:01.055Z,9.20
2023-04-26T08:38:29.684Z,7.33
2023-04-26T08:41:01.925Z,7.23
2023-04-26T08:43:30.578Z,6.70
2023-04-26T08:46:00.802Z,8.93
2023-04-26T08:48:32.657Z,8.87
2023-04-26T08:51:03.560Z,12.73
2023-04-26T08:53:35.541Z,9.87
2023-04-26T08:56:05.678Z,8.53
2023-04-26T08:58:33.848Z,8.50
2023-04-26T09:01:04.590Z,6.87
2023-04-26T09:03:33.140Z,7.80
2023-04-26T09:06:05.104Z,8.77
2023-04-26T09:08:37.651Z,5.23
2023-04-26T09:11:06.016Z,8.77
2023-04-26T09:13:34.361Z,8.83
2023-04-26T09:16:04.759Z,6.47
2023-04-26T09:18:34.228Z,6.77
2023-04-26T09:21:08.736Z,7.70
2023-04-26T09:23:37.142Z,7.23
2023-04-26T09:26:19.107Z,9.10
2023-04-26T09:28:47.682Z,10.07
2023-04-26T09:31:37.601Z,7.87
2023-04-26T09:34:05.921Z,5.40
2023-04-26T09:36:48.518Z,8.03
2023-04-26T09:39:16.867Z,7.83
2023-04-26T09:41:45.842Z,7.67
2023-04-26T09:44:24.147Z,6.30
2023-04-26T09:47:03.632Z,11.33
2023-04-26T09:49:34.694Z,7.07
2023-04-26T09:52:07.204Z,5.67
2023-04-26T09:54:46.688Z,6.83
2023-04-26T09:57:16.277Z,5.17
2023-04-26T09:59:46.710Z,8.27
2023-04-26T10:02:21.924Z,7.80
2023-04-26T10:04:51.586Z,5.27
2023-04-26T10:07:23.100Z,5.13
2023-04-26T10:09:52.372Z,5.73
2023-04-26T10:12:21.398Z,6.67
2023-04-26T10:14:50.009Z,8.73
2023-04-26T10:17:20.810Z,4.63
2023-04-26T10:19:52.758Z,7.73
2023-04-26T10:22:25.878Z,7.43
2023-04-26T10:24:56.059Z,7.83
2023-04-26T10:27:50.120Z,9.17
2023-04-26T10:30:19.128Z,5.83
2023-04-26T10:33:23.806Z,8.50
2023-04-26T10:36:12.652Z,5.10
2023-04-26T10:38:43.453Z,8.93
2023-04-26T10:41:37.414Z,8.33
2023-04-26T10:44:38.479Z,8.37
2023-04-26T10:47:07.711Z,8.47
2023-04-26T10:49:49.432Z,12.23
2023-04-26T10:52:20.266Z,10.53
2023-04-26T10:54:51.711Z,9.67
2023-04-26T10:57:21.535Z,7.87
2023-04-26T11:00:30.047Z,8.07
2023-04-26T11:03:04.288Z,8.33
2023-04-26T11:05:51.880Z,9.90
2023-04-26T11:08:21.359Z,6.50
2023-04-26T11:11:08.948Z,8.63
2023-04-26T11:13:38.503Z,6.47
2023-04-26T11:16:08.210Z,11.50
2023-04-26T11:18:38.806Z,5.17
2023-04-26T11:21:07.809Z,8.17
2023-04-26T11:23:36.639Z,7.13
2023-04-26T11:26:08.280Z,8.13
2023-04-26T11:28:38.355Z,6.00
2023-04-26T11:31:07.665Z,6.43
2023-04-26T11:33:36.121Z,5.57
2023-04-26T11:36:05.118Z,7.63
2023-04-26T11:38:33.350Z,5.90
2023-04-26T11:41:03.241Z,9.53
2023-04-26T11:43:36.738Z,7.30
2023-04-26T11:46:05.326Z,6.63
2023-04-26T11:48:34.875Z,7.80
2023-04-26T11:51:05.502Z,7.17
2023-04-26T11:53:38.193Z,7.40
2023-04-26T11:56:15.230Z,8.23
2023-04-26T11:58:47.936Z,5.63
2023-04-26T12:01:23.733Z,6.30
2023-04-26T12:03:53.612Z,8.27
2023-04-26T12:06:27.073Z,6.30
2023-04-26T12:08:55.213Z,4.37
2023-04-26T12:11:23.399Z,8.13
2023-04-26T12:13:53.045Z,5.20
2023-04-26T12:16:26.625Z,7.87
2023-04-26T12:18:56.957Z,5.77
2023-04-26T12:21:28.158Z,3.77
2023-04-26T12:23:58.072Z,7.03
2023-04-26T12:26:42.844Z,4.17
2023-04-26T12:29:12.479Z,6.93
2023-04-26T12:31:40.879Z,5.53
2023-04-26T12:34:09.269Z,10.77
2023-04-26T12:36:37.452Z,4.50
2023-04-26T12:39:06.857Z,4.60
2023-04-26T12:41:35.067Z,7.07
2023-04-26T12:44:03.256Z,6.53
2023-04-26T12:46:32.919Z,7.43
2023-04-26T12:49:01.293Z,5.57
2023-04-26T12:51:30.332Z,11.40
2023-04-26T12:53:58.604Z,4.47
2023-04-26T12:56:26.960Z,4.27
2023-04-26T12:58:55.246Z,6.37
2023-04-26T13:01:23.479Z,5.37
2023-04-26T13:03:54.232Z,5.10
2023-04-26T13:06:22.548Z,4.73
2023-04-26T13:08:50.796Z,7.00
2023-04-26T13:11:19.164Z,6.47
2023-04-26T13:13:47.428Z,8.73
2023-04-26T13:16:15.602Z,5.93
2023-04-26T13:18:43.770Z,5.87
2023-04-26T13:21:13.602Z,5.50
2023-04-26T13:23:41.771Z,8.03
2023-04-26T13:26:09.922Z,7.40
2023-04-26T13:28:38.117Z,7.03
2023-04-26T13:31:06.502Z,5.27
2023-04-26T13:33:34.814Z,9.40
2023-04-26T13:36:03.092Z,14.37
2023-04-26T13:38:33.029Z,9.30
2023-04-26T13:41:01.525Z,11.07
2023-04-26T13:43:29.703Z,6.00
2023-04-26T13:45:57.981Z,8.60
2023-04-26T13:48:26.215Z,7.03
2023-04-26T13:50:56.251Z,6.00
2023-04-26T13:53:24.464Z,3.13
2023-04-26T13:55:54.032Z,10.47
2023-04-26T13:58:22.232Z,11.67
2023-04-26T14:00:50.481Z,8.23
2023-04-26T14:03:18.831Z,9.60
2023-04-26T14:05:47.121Z,8.10
2023-04-26T14:08:15.498Z,8.23
2023-04-26T14:10:43.825Z,6.23
2023-04-26T14:13:13.431Z,10.03
2023-04-26T14:15:41.611Z,8.93
2023-04-26T14:18:09.901Z,10.73
2023-04-26T14:20:38.216Z,10.03
2023-04-26T14:23:06.385Z,13.87
2023-04-26T14:25:34.630Z,7.20
2023-04-26T14:28:03.405Z,9.40
2023-04-26T14:30:33.016Z,10.57
2023-04-26T14:33:01.389Z,11.57
2023-04-26T14:35:29.551Z,11.20
2023-04-26T14:37:57.767Z,8.60
2023-04-26T14:40:26.308Z,6.73
2023-04-26T14:42:54.487Z,7.95
2023-04-26T14:45:30.380Z,9.40
2023-04-26T14:48:00.277Z,7.67
2023-04-26T14:50:28.575Z,9.27
2023-04-26T14:52:57.026Z,4.77
2023-04-26T14:55:27.161Z,11.00
2023-04-26T14:57:55.577Z,8.10
2023-04-26T15:00:25.543Z,7.03
2023-04-26T15:02:53.879Z,8.00
2023-04-26T15:05:24.334Z,6.10
2023-04-26T15:07:53.068Z,8.30
2023-04-26T15:10:21.411Z,9.60
2023-04-26T15:12:49.629Z,8.10
2023-04-26T15:15:17.913Z,3.83
2023-04-26T15:17:46.112Z,10.90
2023-04-26T15:20:14.594Z,8.57
2023-04-26T15:22:44.233Z,10.07
2023-04-26T15:25:12.828Z,7.43
2023-04-26T15:27:41.156Z,9.70
2023-04-26T15:30:10.077Z,5.07
2023-04-26T15:32:38.396Z,9.73
2023-04-26T15:35:07.523Z,5.20
2023-04-26T15:37:38.369Z,11.33
2023-04-26T15:40:10.580Z,4.93
2023-04-26T15:42:39.335Z,7.40
2023-04-26T15:45:08.703Z,11.63
2023-04-26T15:47:37.167Z,10.33
2023-04-26T15:50:06.174Z,8.97
2023-04-26T15:52:38.565Z,18.57
2023-04-26T15:55:09.448Z,10.20
2023-04-26T15:57:37.863Z,7.10
2023-04-26T16:00:08.850Z,7.03
2023-04-26T16:02:37.551Z,7.70
2023-04-26T16:05:08.194Z,9.97
2023-04-26T16:07:38.731Z,10.30
2023-04-26T16:10:10.265Z,8.40
2023-04-26T16:12:39.921Z,14.33
2023-04-26T16:15:09.447Z,9.20
2023-04-26T16:17:38.551Z,11.60
2023-04-26T16:20:08.315Z,13.10
2023-04-26T16:22:37.103Z,13.00
2023-04-26T16:25:06.840Z,10.23
2023-04-26T16:27:36.817Z,10.00
2023-04-26T16:30:05.669Z,12.83
2023-04-26T16:32:34.223Z,9.23
2023-04-26T16:35:02.566Z,9.50
2023-04-26T16:37:31.412Z,6.10
2023-04-26T16:40:00.263Z,6.53
2023-04-26T16:42:30.813Z,12.50
2023-04-26T16:45:00.544Z,6.37
2023-04-26T16:47:28.747Z,7.67
2023-04-26T16:49:57.322Z,11.43
2023-04-26T16:52:25.633Z,13.67
2023-04-26T16:54:53.786Z,11.53
2023-04-26T16:57:22.027Z,14.87
2023-04-26T16:59:50.228Z,12.63
2023-04-26T17:02:19.891Z,8.30
2023-04-26T17:04:48.831Z,18.23
2023-04-26T17:07:17.337Z,13.67
2023-04-26T17:09:45.514Z,7.80
2023-04-26T17:12:13.701Z,9.70
2023-04-26T17:14:42.332Z,10.10
2023-04-26T17:17:10.569Z,14.90
2023-04-26T17:19:40.246Z,9.67
2023-04-26T17:22:08.546Z,10.13
2023-04-26T17:24:37.105Z,11.17
2023-04-26T17:27:05.408Z,10.60
2023-04-26T17:29:33.599Z,10.88
2023-04-26T17:32:01.885Z,9.83
2023-04-26T17:34:30.089Z,8.10
2023-04-26T17:36:59.657Z,7.37
2023-04-26T17:39:27.854Z,16.73
2023-04-26T17:41:56.032Z,8.23
2023-04-26T17:44:24.242Z,9.50
2023-04-26T17:46:52.399Z,11.03
2023-04-26T17:49:22.081Z,13.53
2023-04-26T17:51:50.327Z,11.23
2023-04-26T17:54:19.940Z,18.40
2023-04-26T17:56:48.124Z,14.93
2023-04-26T17:59:16.360Z,9.90
2023-04-26T18:01:44.698Z,16.93
2023-04-26T18:04:13.072Z,15.17
2023-04-26T18:06:41.593Z,17.67
2023-04-26T18:09:10.617Z,21.97
2023-04-26T18:11:40.249Z,18.87
2023-04-26T18:14:08.417Z,18.07
2023-04-26T18:16:36.613Z,16.83
2023-04-26T18:19:04.804Z,13.03
2023-04-26T18:21:33.070Z,16.87
2023-04-26T18:24:01.448Z,19.67
2023-04-26T18:26:29.744Z,18.70
2023-04-26T18:28:59.316Z,16.27
2023-04-26T18:31:28.071Z,16.83
2023-04-26T18:33:56.436Z,13.63
2023-04-26T18:36:24.659Z,14.53
2023-04-26T18:38:52.820Z,17.90
2023-04-26T18:41:21.355Z,18.07
2023-04-26T18:43:49.541Z,12.13
2023-04-26T18:46:19.195Z,14.10
2023-04-26T18:48:47.570Z,12.73
2023-04-26T18:51:15.894Z,16.73
2023-04-26T18:53:44.172Z,19.47
2023-04-26T18:56:12.396Z,14.17
2023-04-26T18:58:40.647Z,14.60
2023-04-26T19:01:10.110Z,17.53
2023-04-26T19:03:40.083Z,14.50
2023-04-26T19:06:10.445Z,16.30
2023-04-26T19:08:39.021Z,19.27
2023-04-26T19:11:09.058Z,15.80
2023-04-26T19:13:37.527Z,15.80
2023-04-26T19:16:09.013Z,18.37
2023-04-26T19:18:40.571Z,21.03
2023-04-26T19:21:09.671Z,15.23
2023-04-26T19:23:38.470Z,19.63
2023-04-26T19:26:08.176Z,19.20
2023-04-26T19:28:37.635Z,19.13
2023-04-26T19:31:06.057Z,17.90
2023-04-26T19:33:34.414Z,21.00
2023-04-26T19:36:04.225Z,21.87
2023-04-26T19:38:32.541Z,20.40
2023-04-26T19:41:02.326Z,18.77
2023-04-26T19:43:30.599Z,19.47
2023-04-26T19:45:58.932Z,20.70
2023-04-26T19:48:27.804Z,24.00
2023-04-26T19:50:55.995Z,23.07
2023-04-26T19:53:25.545Z,20.37
2023-04-26T19:55:53.748Z,22.83
2023-04-26T19:58:21.936Z,20.93
2023-04-26T20:00:50.990Z,20.97
2023-04-26T20:03:19.416Z,17.47
2023-04-26T20:05:47.743Z,18.23
2023-04-26T20:08:16.159Z,21.57
2023-04-26T20:10:45.804Z,19.33
2023-04-26T20:13:14.035Z,21.80
2023-04-26T20:15:42.589Z,22.10
2023-04-26T20:18:13.134Z,23.87
2023-04-26T20:20:41.601Z,20.83
2023-04-26T20:23:09.845Z,22.37
2023-04-26T20:25:38.136Z,22.83
2023-04-26T20:28:07.874Z,26.83
2023-04-26T20:30:36.190Z,28.80
2023-04-26T20:33:04.529Z,22.73
2023-04-26T20:35:32.806Z,25.63
2023-04-26T20:38:01.130Z,23.23
2023-04-26T20:40:29.384Z,27.30
2023-04-26T20:42:57.620Z,20.77
2023-04-26T20:45:27.232Z,19.23
2023-04-26T20:47:55.581Z,20.73
2023-04-26T20:50:24.041Z,22.30
2023-04-26T20:52:52.194Z,22.30
2023-04-26T20:55:20.608Z,25.30
2023-04-26T20:57:48.770Z,19.73
2023-04-26T21:00:17.357Z,17.27
2023-04-26T21:02:46.992Z,17.80
2023-04-26T21:05:17.018Z,15.97
2023-04-26T21:07:45.223Z,16.17
2023-04-26T21:10:13.446Z,18.73
2023-04-26T21:12:41.798Z,17.27
2023-04-26T21:15:10.861Z,14.70
2023-04-26T21:17:40.723Z,19.50
2023-04-26T21:20:11.678Z,14.93
2023-04-26T21:22:39.841Z,18.07
2023-04-26T21:25:08.985Z,17.90
2023-04-26T21:27:37.275Z,18.87
2023-04-26T21:30:06.239Z,22.03
2023-04-26T21:32:34.412Z,16.77
2023-04-26T21:35:02.619Z,19.83
2023-04-26T21:37:32.199Z,18.70
2023-04-26T21:40:01.267Z,15.47
2023-04-26T21:42:29.460Z,15.60
2023-04-26T21:44:57.638Z,16.80
2023-04-26T21:47:25.892Z,19.27
2023-04-26T21:49:54.063Z,15.67
2023-04-26T21:52:22.234Z,17.13
2023-04-26T21:54:52.961Z,20.43
2023-04-26T21:57:24.118Z,19.27
2023-04-26T21:59:52.519Z,18.03
2023-04-26T22:02:21.022Z,21.23
2023-04-26T22:04:49.215Z,18.60
2023-04-26T22:07:17.418Z,17.57
2023-04-26T22:09:45.578Z,19.40
2023-04-26T22:12:15.499Z,20.37
2023-04-26T22:14:43.833Z,18.27
2023-04-26T22:17:12.008Z,18.07
2023-04-26T22:19:40.182Z,20.33
2023-04-26T22:22:08.378Z,14.73
2023-04-26T22:24:36.780Z,16.53
2023-04-26T22:27:05.572Z,18.20
2023-04-26T22:29:35.161Z,15.83
2023-04-26T22:32:03.379Z,19.33
2023-04-26T22:34:31.622Z,16.93
2023-04-26T22:37:13.119Z,15.53
2023-04-26T22:39:47.951Z,15.90
2023-04-26T22:42:16.168Z,14.53
2023-04-26T22:44:46.617Z,15.67
2023-04-26T22:47:14.802Z,16.03
2023-04-26T22:49:42.969Z,16.83
2023-04-26T22:52:17.330Z,16.13
2023-04-26T22:54:56.335Z,20.13
2023-04-26T22:57:24.601Z,18.53
2023-04-26T22:59:54.219Z,12.67
2023-04-26T23:02:22.499Z,17.07
2023-04-26T23:04:50.793Z,13.80
2023-04-26T23:07:18.999Z,16.13
2023-04-26T23:09:47.509Z,14.50
2023-04-26T23:12:20.093Z,18.83
2023-04-26T23:14:50.672Z,15.93
2023-04-26T23:17:20.783Z,16.97
2023-04-26T23:19:49.029Z,21.27
2023-04-26T23:22:17.195Z,15.50
2023-04-26T23:24:45.426Z,16.63
2023-04-26T23:27:13.626Z,13.93
2023-04-26T23:29:41.811Z,18.27
2023-04-26T23:32:09.942Z,12.03
2023-04-26T23:34:39.540Z,15.20
2023-04-26T23:37:08.218Z,16.27
2023-04-26T23:39:36.745Z,14.20
2023-04-26T23:42:05.087Z,13.53
2023-04-26T23:44:33.243Z,15.53
2023-04-26T23:47:01.836Z,16.43
2023-04-26T23:49:30.034Z,16.37
2023-04-26T23:51:59.601Z,12.73
2023-04-26T23:54:27.817Z,18.47
2023-04-26T23:56:55.998Z,21.67
2023-04-26T23:59:24.666Z,20.67
